Kezdőlap
METAR-TAF:

METAR-TAF

Repülőterek :

Fremont Municipal Airport

Fremont, Nebraska, Amerikai Egyesült Államok

földrajzi szélesség: 41-27N, földrajzi hosszúság: 096-31W, magasság: 379 m

Jelenlegi meteorológiai megfigyelések

A jelentés 29 perccel ezelõtt készült, 12:55 UTC
Kelet-északkeleti szél 6 kt
Hőmérséklet -9°C
Páratartalom 79%
Légköri nyomás 1018 hPa
Látótávolság: 6.4 km
Szakadozott felhőzet 3700 lábon
Borult 4300 lábon
enyhe havazás

METAR: KFET 151255Z AUTO 07006KT 4SM -SN BKN037 OVC043 M09/M12 A3006 RMK AO2 T10901116

Idő: 07:24 (13:24 UTC)


TAF: hiányzik

Meteorológiai megfigyelések és előrejelzések több, mint 4000 repülőtéren (METAR és TAF jelentéseket).

A térképen piros és sárga pontok jelzik az elérhető meteorológiai állomásokat.

Mozgassa az egeret a pont fölött, hogy megjelenjen az állomás neve.

Azután kattintson az időjárási megfigyelések és előrejelzések megtekintéséhez.

A térkép megváltoztatása: kattintson a fekete keresztel jelölt zöld gombra ráközelítéshez, a vonallal jelölt zöld gombra távolításhoz, vagy a zöld nyilakra a szomszédos térképek eléréséhez.


METAR-TAF: